createdAt,value
2018-09-24T00:00:24.894Z,10.80
2018-09-24T00:02:53.006Z,10.80
2018-09-24T00:05:21.130Z,10.80
2018-09-24T00:07:49.351Z,10.80
2018-09-24T00:10:17.475Z,10.70
2018-09-24T00:12:45.610Z,10.70
2018-09-24T00:15:13.737Z,10.80
2018-09-24T00:17:41.878Z,10.80
2018-09-24T00:20:10.002Z,10.80
2018-09-24T00:22:38.154Z,10.80
2018-09-24T00:25:06.276Z,10.70
2018-09-24T00:27:34.414Z,10.80
2018-09-24T00:30:02.551Z,10.80
2018-09-24T00:32:30.710Z,10.70
2018-09-24T00:34:58.850Z,10.70
2018-09-24T00:37:26.986Z,10.70
2018-09-24T00:39:55.114Z,10.70
2018-09-24T00:42:23.269Z,10.60
2018-09-24T00:44:51.394Z,10.70
2018-09-24T00:47:19.533Z,10.70
2018-09-24T00:49:47.662Z,10.70
2018-09-24T00:52:15.809Z,10.60
2018-09-24T00:54:43.939Z,10.60
2018-09-24T00:57:12.114Z,10.60
2018-09-24T00:59:40.256Z,10.60
2018-09-24T01:02:08.395Z,10.50
2018-09-24T01:04:36.526Z,10.50
2018-09-24T01:07:04.790Z,10.50
2018-09-24T01:09:32.923Z,10.50
2018-09-24T01:12:01.087Z,10.40
2018-09-24T01:14:29.219Z,10.40
2018-09-24T01:16:57.364Z,10.40
2018-09-24T01:19:25.516Z,10.40
2018-09-24T01:21:53.650Z,10.40
2018-09-24T01:24:21.787Z,10.40
2018-09-24T01:26:49.922Z,10.40
2018-09-24T01:29:18.073Z,10.30
2018-09-24T01:31:46.215Z,10.30
2018-09-24T01:34:14.345Z,10.40
2018-09-24T01:36:42.479Z,10.40
2018-09-24T01:39:10.620Z,10.30
2018-09-24T01:41:38.754Z,10.30
2018-09-24T01:44:06.900Z,10.30
2018-09-24T01:46:35.224Z,10.30
2018-09-24T01:49:03.870Z,10.20
2018-09-24T01:51:35.458Z,10.20
2018-09-24T01:54:04.063Z,10.20
2018-09-24T01:56:32.335Z,10.20
2018-09-24T01:59:00.484Z,10.20
2018-09-24T02:01:28.603Z,10.10
2018-09-24T02:03:56.734Z,10.10
2018-09-24T02:06:24.855Z,10.10
2018-09-24T02:08:52.990Z,10.10
2018-09-24T02:11:21.119Z,10.10
2018-09-24T02:13:50.412Z,10.10
2018-09-24T02:16:19.294Z,10.20
2018-09-24T02:18:47.936Z,10.30
2018-09-24T02:21:16.159Z,10.30
2018-09-24T02:23:44.285Z,10.30
2018-09-24T02:26:12.502Z,10.40
2018-09-24T02:28:40.650Z,10.40
2018-09-24T02:31:09.075Z,10.50
2018-09-24T02:33:37.219Z,10.60
2018-09-24T02:36:05.380Z,10.50
2018-09-24T02:38:38.128Z,10.40
2018-09-24T02:41:06.258Z,10.40
2018-09-24T02:43:34.406Z,10.40
2018-09-24T02:46:02.534Z,10.40
2018-09-24T02:48:30.690Z,10.40
2018-09-24T02:50:58.818Z,10.30
2018-09-24T02:53:26.977Z,10.20
2018-09-24T02:55:55.110Z,10.20
2018-09-24T02:58:23.254Z,10.10
2018-09-24T03:00:51.487Z,10.20
2018-09-24T03:03:19.723Z,10.30
2018-09-24T03:05:47.851Z,10.30
2018-09-24T03:08:15.995Z,10.20
2018-09-24T03:10:44.141Z,10.30
2018-09-24T03:13:12.287Z,10.20
2018-09-24T03:15:41.607Z,10.20
2018-09-24T03:18:10.387Z,10.20
2018-09-24T03:20:41.126Z,10.20
2018-09-24T03:23:09.611Z,10.20
2018-09-24T03:25:38.198Z,10.20
2018-09-24T03:28:06.337Z,10.20
2018-09-24T03:30:37.583Z,10.10
2018-09-24T03:33:05.754Z,10.10
2018-09-24T03:35:34.186Z,10.20
2018-09-24T03:38:07.243Z,10.20
2018-09-24T03:40:35.387Z,10.20
2018-09-24T03:43:03.525Z,10.20
2018-09-24T03:45:31.673Z,10.20
2018-09-24T03:47:59.854Z,10.20
2018-09-24T03:50:28.002Z,10.10
2018-09-24T03:52:56.144Z,10.10
2018-09-24T03:55:24.307Z,10.10
2018-09-24T03:57:52.429Z,10.00
2018-09-24T04:00:20.583Z,9.90
2018-09-24T04:02:48.711Z,9.90
2018-09-24T04:05:22.398Z,9.90
2018-09-24T04:07:55.903Z,9.80
2018-09-24T04:10:29.601Z,9.90
2018-09-24T04:13:03.255Z,9.80
2018-09-24T04:15:36.862Z,9.80
2018-09-24T04:18:10.490Z,9.80
2018-09-24T04:20:43.841Z,9.80
2018-09-24T04:23:17.325Z,9.80
2018-09-24T04:25:50.851Z,9.80
2018-09-24T04:28:24.458Z,9.80
2018-09-24T04:30:58.039Z,9.80
2018-09-24T04:33:31.709Z,9.70
2018-09-24T04:36:05.188Z,9.70
2018-09-24T04:38:38.622Z,9.80
2018-09-24T04:41:12.315Z,9.80
2018-09-24T04:43:46.007Z,9.80
2018-09-24T04:46:19.334Z,9.70
2018-09-24T04:48:52.690Z,9.80
2018-09-24T04:51:26.370Z,9.80
2018-09-24T04:53:59.987Z,9.90
2018-09-24T04:56:33.602Z,9.90
2018-09-24T04:59:06.987Z,9.80
2018-09-24T05:01:40.639Z,10.00
2018-09-24T05:04:14.272Z,10.00
2018-09-24T05:06:47.917Z,10.00
2018-09-24T05:09:21.421Z,9.90
2018-09-24T05:11:54.831Z,10.00
2018-09-24T05:14:28.159Z,9.90
2018-09-24T05:17:01.730Z,9.90
2018-09-24T05:19:35.298Z,9.90
2018-09-24T05:22:08.846Z,9.80
2018-09-24T05:24:42.198Z,9.80
2018-09-24T05:27:15.746Z,9.60
2018-09-24T05:29:49.191Z,9.60
2018-09-24T05:32:22.635Z,9.50
2018-09-24T05:34:56.047Z,9.50
2018-09-24T05:37:29.546Z,9.40
2018-09-24T05:40:03.279Z,9.50
2018-09-24T05:42:36.892Z,9.30
2018-09-24T05:45:11.083Z,9.10
2018-09-24T05:47:44.669Z,9.10
2018-09-24T05:50:18.023Z,9.10
2018-09-24T05:52:51.666Z,9.20
2018-09-24T05:55:25.383Z,9.40
2018-09-24T05:57:58.931Z,9.50
2018-09-24T06:00:32.319Z,9.50
2018-09-24T06:03:05.851Z,9.60
2018-09-24T06:05:39.355Z,9.60
2018-09-24T06:08:13.019Z,9.50
2018-09-24T06:10:46.431Z,9.50
2018-09-24T06:13:20.035Z,9.60
2018-09-24T06:15:53.367Z,9.60
2018-09-24T06:18:27.072Z,9.60
2018-09-24T06:21:00.575Z,9.70
2018-09-24T06:23:33.925Z,9.80
2018-09-24T06:26:07.588Z,9.80
2018-09-24T06:28:41.282Z,9.80
2018-09-24T06:31:14.898Z,9.70
2018-09-24T06:33:48.566Z,9.90
2018-09-24T06:36:21.926Z,9.90
2018-09-24T06:38:55.606Z,9.80
2018-09-24T06:41:29.157Z,9.90
2018-09-24T06:44:02.797Z,9.90
2018-09-24T06:46:36.472Z,9.90
2018-09-24T06:49:10.122Z,10.00
2018-09-24T06:51:43.527Z,10.00
2018-09-24T06:54:17.159Z,10.00
2018-09-24T06:56:50.482Z,10.00
2018-09-24T06:59:24.102Z,10.30
2018-09-24T07:01:57.450Z,10.30
2018-09-24T07:04:31.822Z,10.40
2018-09-24T07:07:05.254Z,10.50
2018-09-24T07:09:38.934Z,10.70
2018-09-24T07:12:12.537Z,11.00
2018-09-24T07:14:46.219Z,11.30
2018-09-24T07:17:19.691Z,11.30
2018-09-24T07:19:53.346Z,11.20
2018-09-24T07:22:26.701Z,11.20
2018-09-24T07:25:00.163Z,11.20
2018-09-24T07:27:33.557Z,11.40
2018-09-24T07:30:07.242Z,11.30
2018-09-24T07:32:40.894Z,11.40
2018-09-24T07:35:14.374Z,11.30
2018-09-24T07:37:47.826Z,11.30
2018-09-24T07:40:21.546Z,11.50
2018-09-24T07:42:55.235Z,11.60
2018-09-24T07:45:28.926Z,11.60
2018-09-24T07:48:02.606Z,11.60
2018-09-24T07:50:36.234Z,11.80
2018-09-24T07:53:09.757Z,11.70
2018-09-24T07:55:43.431Z,11.80
2018-09-24T07:58:16.790Z,12.00
2018-09-24T08:00:50.273Z,12.20
2018-09-24T08:03:23.670Z,12.30
2018-09-24T08:05:57.330Z,12.20
2018-09-24T08:08:30.634Z,12.40
2018-09-24T08:11:04.318Z,12.60
2018-09-24T08:13:37.670Z,12.70
2018-09-24T08:16:11.421Z,12.80
2018-09-24T08:18:44.997Z,12.90
2018-09-24T08:21:18.631Z,13.10
2018-09-24T08:23:52.068Z,13.30
2018-09-24T08:26:25.566Z,13.40
2018-09-24T08:28:59.107Z,13.40
2018-09-24T08:31:32.394Z,13.50
2018-09-24T08:34:05.779Z,13.60
2018-09-24T08:36:39.171Z,13.70
2018-09-24T08:39:12.893Z,13.80
2018-09-24T08:41:46.541Z,13.80
2018-09-24T08:44:19.922Z,13.90
2018-09-24T08:46:53.622Z,13.90
2018-09-24T08:49:27.306Z,14.00
2018-09-24T08:52:00.758Z,14.20
2018-09-24T08:54:34.421Z,14.40
2018-09-24T08:57:07.985Z,14.40
2018-09-24T08:59:41.347Z,14.30
2018-09-24T09:02:15.022Z,14.40
2018-09-24T09:04:48.410Z,14.50
2018-09-24T09:07:21.914Z,14.50
2018-09-24T09:09:55.338Z,14.60
2018-09-24T09:12:29.013Z,14.60
2018-09-24T09:15:02.458Z,14.70
2018-09-24T09:17:36.131Z,14.70
2018-09-24T09:20:09.734Z,14.80
2018-09-24T09:22:43.065Z,14.80
2018-09-24T09:25:16.377Z,14.90
2018-09-24T09:27:49.842Z,15.00
2018-09-24T09:30:23.231Z,15.00
2018-09-24T09:32:56.551Z,15.10
2018-09-24T09:35:30.171Z,15.20
2018-09-24T09:38:03.882Z,15.30
2018-09-24T09:40:37.622Z,15.40
2018-09-24T09:43:11.326Z,15.50
2018-09-24T09:45:45.030Z,15.50
2018-09-24T09:48:18.453Z,15.50
2018-09-24T09:50:52.047Z,15.50
2018-09-24T09:53:25.721Z,15.50
2018-09-24T09:55:59.150Z,15.60
2018-09-24T09:58:32.807Z,15.60
2018-09-24T10:01:06.523Z,15.70
2018-09-24T10:03:40.169Z,15.70
2018-09-24T10:06:13.623Z,15.80
2018-09-24T10:08:47.323Z,15.90
2018-09-24T10:11:20.867Z,16.00
2018-09-24T10:13:54.426Z,15.90
2018-09-24T10:16:28.094Z,15.90
2018-09-24T10:19:01.449Z,16.00
2018-09-24T10:21:34.748Z,16.10
2018-09-24T10:24:08.355Z,16.20
2018-09-24T10:26:41.727Z,16.20
2018-09-24T10:29:15.380Z,16.20
2018-09-24T10:31:49.099Z,16.30
2018-09-24T10:34:22.719Z,16.30
2018-09-24T10:36:56.371Z,16.40
2018-09-24T10:39:29.897Z,16.40
2018-09-24T10:42:03.506Z,16.30
2018-09-24T10:44:37.091Z,16.30
2018-09-24T10:47:10.823Z,16.30
2018-09-24T10:49:44.532Z,16.40
2018-09-24T10:52:18.186Z,16.50
2018-09-24T10:54:51.854Z,16.50
2018-09-24T10:57:25.350Z,16.50
2018-09-24T10:59:59.034Z,16.50
2018-09-24T11:02:32.467Z,16.50
2018-09-24T11:05:05.804Z,16.50
2018-09-24T11:07:39.436Z,16.40
2018-09-24T11:10:12.992Z,16.30
2018-09-24T11:12:46.631Z,16.20
2018-09-24T11:15:20.174Z,16.20
2018-09-24T11:17:54.022Z,16.20
2018-09-24T11:20:27.503Z,16.20
2018-09-24T11:23:01.139Z,16.30
2018-09-24T11:25:34.639Z,16.40
2018-09-24T11:28:08.362Z,16.60
2018-09-24T11:30:41.874Z,16.60
2018-09-24T11:33:15.499Z,16.50
2018-09-24T11:35:49.167Z,16.40
2018-09-24T11:38:22.758Z,16.40
2018-09-24T11:40:56.147Z,16.30
2018-09-24T11:43:29.647Z,16.20
2018-09-24T11:46:03.274Z,16.10
2018-09-24T11:48:36.931Z,16.10
2018-09-24T11:51:10.625Z,16.00
2018-09-24T11:53:43.991Z,16.10
2018-09-24T11:56:17.522Z,16.10
2018-09-24T11:58:50.994Z,16.00
2018-09-24T12:01:24.518Z,15.80
2018-09-24T12:03:57.982Z,15.60
2018-09-24T12:06:31.339Z,15.20
2018-09-24T12:09:05.015Z,14.80
2018-09-24T12:11:38.489Z,14.30
2018-09-24T12:14:11.890Z,13.80
2018-09-24T12:19:18.754Z,13.70
2018-09-24T12:21:52.439Z,13.70
2018-09-24T12:26:59.437Z,13.50
2018-09-24T12:29:32.936Z,13.50
2018-09-24T12:34:40.017Z,13.50
2018-09-24T12:37:13.493Z,13.50
2018-09-24T12:39:47.142Z,13.50
2018-09-24T12:42:20.746Z,13.70
2018-09-24T12:44:54.149Z,13.80
2018-09-24T12:47:27.811Z,13.80
2018-09-24T12:50:01.493Z,14.00
2018-09-24T12:52:35.017Z,14.50
2018-09-24T12:55:08.474Z,14.70
2018-09-24T12:57:42.155Z,15.00
2018-09-24T13:00:15.632Z,15.50
2018-09-24T13:02:49.201Z,15.80
2018-09-24T13:05:22.949Z,15.80
2018-09-24T13:07:56.661Z,15.80
2018-09-24T13:10:30.035Z,16.00
2018-09-24T13:13:03.725Z,16.00
2018-09-24T13:15:37.062Z,16.00
2018-09-24T13:18:10.852Z,16.00
2018-09-24T13:20:44.322Z,16.20
2018-09-24T13:23:17.903Z,16.30
2018-09-24T13:25:51.397Z,16.30
2018-09-24T13:28:25.058Z,16.40
2018-09-24T13:30:58.410Z,16.40
2018-09-24T13:33:32.166Z,16.20
2018-09-24T13:36:05.669Z,16.00
2018-09-24T13:38:39.175Z,15.80
2018-09-24T13:41:12.850Z,15.50
2018-09-24T13:43:46.430Z,15.10
2018-09-24T13:46:20.139Z,14.90
2018-09-24T13:48:53.894Z,15.00
2018-09-24T13:51:27.566Z,15.10
2018-09-24T13:54:00.926Z,14.80
2018-09-24T13:56:34.627Z,14.50
2018-09-24T13:59:08.206Z,14.50
2018-09-24T14:01:41.902Z,14.40
2018-09-24T14:04:15.563Z,14.10
2018-09-24T14:06:49.275Z,14.10
2018-09-24T14:09:22.767Z,14.30
2018-09-24T14:11:56.385Z,14.30
2018-09-24T14:14:30.066Z,14.40
2018-09-24T14:17:03.528Z,14.10
2018-09-24T14:19:37.146Z,14.40
2018-09-24T14:22:10.721Z,14.60
2018-09-24T14:24:44.299Z,14.60
2018-09-24T14:27:18.089Z,14.70
2018-09-24T14:29:51.634Z,14.90
2018-09-24T14:32:25.289Z,14.70
2018-09-24T14:34:58.899Z,14.70
2018-09-24T14:37:32.389Z,14.80
2018-09-24T14:40:06.079Z,14.80
2018-09-24T14:42:39.715Z,14.80
2018-09-24T14:45:13.214Z,14.80
2018-09-24T14:47:46.870Z,14.80
2018-09-24T14:50:20.422Z,14.80
2018-09-24T14:52:54.227Z,14.80
2018-09-24T14:55:27.830Z,14.90
2018-09-24T14:58:01.248Z,15.00
2018-09-24T15:00:34.918Z,15.10
2018-09-24T15:03:08.604Z,15.10
2018-09-24T15:05:42.174Z,15.00
2018-09-24T15:08:15.790Z,14.90
2018-09-24T15:10:49.357Z,14.80
2018-09-24T15:13:22.713Z,14.70
2018-09-24T15:15:56.190Z,14.70
2018-09-24T15:18:29.746Z,14.70
2018-09-24T15:21:03.375Z,14.80
2018-09-24T15:23:36.738Z,14.90
2018-09-24T15:26:10.511Z,15.10
2018-09-24T15:28:44.212Z,15.30
2018-09-24T15:31:17.850Z,15.40
2018-09-24T15:33:51.515Z,15.50
2018-09-24T15:36:25.115Z,15.60
2018-09-24T15:38:58.843Z,15.70
2018-09-24T15:41:32.424Z,15.60
2018-09-24T15:44:05.974Z,15.40
2018-09-24T15:46:39.359Z,15.50
2018-09-24T15:49:12.825Z,15.60
2018-09-24T15:51:46.439Z,15.60
2018-09-24T15:54:19.966Z,15.60
2018-09-24T15:56:53.599Z,15.60
2018-09-24T15:59:27.225Z,15.70
2018-09-24T16:02:00.854Z,15.60
2018-09-24T16:04:34.354Z,15.70
2018-09-24T16:07:08.086Z,15.60
2018-09-24T16:09:41.447Z,15.60
2018-09-24T16:12:14.955Z,15.70
2018-09-24T16:14:48.658Z,15.70
2018-09-24T16:17:22.326Z,15.70
2018-09-24T16:19:55.770Z,14.00
2018-09-24T16:22:29.210Z,15.80
2018-09-24T16:25:02.612Z,15.70
2018-09-24T16:27:36.217Z,15.60
2018-09-24T16:30:09.810Z,15.70
2018-09-24T16:32:43.217Z,15.80
2018-09-24T16:35:16.790Z,15.80
2018-09-24T16:37:50.472Z,16.00
2018-09-24T16:40:23.830Z,16.20
2018-09-24T16:42:57.526Z,16.40
2018-09-24T16:45:30.873Z,16.40
2018-09-24T16:48:04.254Z,16.20
2018-09-24T16:50:37.817Z,16.20
2018-09-24T16:53:11.532Z,16.10
2018-09-24T16:55:44.991Z,16.00
2018-09-24T16:58:18.484Z,15.90
2018-09-24T17:00:52.128Z,15.80
2018-09-24T17:03:25.563Z,15.60
2018-09-24T17:05:59.190Z,15.60
2018-09-24T17:08:39.718Z,15.60
2018-09-24T17:11:13.377Z,15.60
2018-09-24T17:13:47.075Z,15.60
2018-09-24T17:16:20.512Z,15.40
2018-09-24T17:18:54.037Z,15.10
2018-09-24T17:21:27.481Z,15.00
2018-09-24T17:24:00.963Z,14.70
2018-09-24T17:26:34.579Z,14.30
2018-09-24T17:29:08.184Z,14.20
2018-09-24T17:31:41.891Z,14.00
2018-09-24T17:34:15.391Z,13.90
2018-09-24T17:36:48.745Z,13.70
2018-09-24T17:39:22.419Z,13.60
2018-09-24T17:41:55.756Z,13.50
2018-09-24T17:44:29.413Z,13.40
2018-09-24T17:47:02.818Z,13.60
2018-09-24T17:49:36.499Z,13.50
2018-09-24T17:52:10.150Z,13.50
2018-09-24T17:54:43.759Z,13.60
2018-09-24T17:57:17.198Z,13.70
2018-09-24T17:59:50.649Z,13.60
2018-09-24T18:02:24.147Z,13.50
2018-09-24T18:04:57.614Z,13.40
2018-09-24T18:07:30.950Z,13.30
2018-09-24T18:10:04.695Z,13.20
2018-09-24T18:12:38.362Z,13.20
2018-09-24T18:15:12.058Z,13.20
2018-09-24T18:17:45.592Z,13.20
2018-09-24T18:20:19.198Z,13.10
2018-09-24T18:22:52.949Z,13.10
2018-09-24T18:25:26.491Z,13.00
2018-09-24T18:28:00.091Z,12.90
2018-09-24T18:30:33.595Z,12.90
2018-09-24T18:33:07.242Z,12.80
2018-09-24T18:35:40.898Z,12.80
2018-09-24T18:38:14.600Z,12.80
2018-09-24T18:40:48.308Z,13.10
2018-09-24T18:43:21.890Z,13.00
2018-09-24T18:45:55.619Z,12.90
2018-09-24T18:48:29.071Z,12.80
2018-09-24T18:51:02.726Z,12.70
2018-09-24T18:53:36.411Z,12.60
2018-09-24T18:56:09.940Z,12.60
2018-09-24T18:58:43.570Z,12.60
2018-09-24T19:01:17.225Z,12.50
2018-09-24T19:03:50.719Z,12.50
2018-09-24T19:06:24.077Z,12.60
2018-09-24T19:08:57.391Z,12.60
2018-09-24T19:11:30.999Z,12.60
2018-09-24T19:14:04.354Z,12.50
2018-09-24T19:16:38.023Z,12.40
2018-09-24T19:19:11.635Z,12.40
2018-09-24T19:21:45.343Z,12.30
2018-09-24T19:24:19.010Z,12.20
2018-09-24T19:26:52.467Z,12.40
2018-09-24T19:29:25.950Z,12.40
2018-09-24T19:31:59.541Z,12.40
2018-09-24T19:34:33.223Z,12.30
2018-09-24T19:37:06.925Z,12.20
2018-09-24T19:39:40.437Z,12.10
2018-09-24T19:42:14.054Z,12.10
2018-09-24T19:44:47.651Z,12.10
2018-09-24T19:47:21.174Z,12.10
2018-09-24T19:49:54.849Z,12.10
2018-09-24T19:52:28.528Z,12.00
2018-09-24T19:55:02.127Z,12.00
2018-09-24T19:57:35.743Z,11.90
2018-09-24T20:00:09.394Z,11.90
2018-09-24T20:02:43.031Z,11.80
2018-09-24T20:05:16.730Z,11.70
2018-09-24T20:07:50.091Z,11.70
2018-09-24T20:10:23.737Z,11.70
2018-09-24T20:12:57.198Z,11.60
2018-09-24T20:15:30.879Z,11.50
2018-09-24T20:18:04.550Z,11.50
2018-09-24T20:20:38.185Z,11.40
2018-09-24T20:23:11.730Z,11.40
2018-09-24T20:25:45.243Z,11.30
2018-09-24T20:28:18.948Z,11.20
2018-09-24T20:30:52.431Z,11.20
2018-09-24T20:33:25.926Z,11.20
2018-09-24T20:35:59.411Z,11.20
2018-09-24T20:38:33.176Z,11.20
2018-09-24T20:41:06.775Z,11.20
2018-09-24T20:43:40.426Z,11.20
2018-09-24T20:46:14.221Z,11.10
2018-09-24T20:48:47.683Z,11.00
2018-09-24T20:51:21.291Z,11.00
2018-09-24T20:53:54.995Z,10.90
2018-09-24T20:56:28.426Z,10.90
2018-09-24T20:59:01.896Z,10.80
2018-09-24T21:01:35.258Z,10.80
2018-09-24T21:04:08.818Z,10.80
2018-09-24T21:06:42.461Z,10.70
2018-09-24T21:09:16.263Z,10.70
2018-09-24T21:11:49.721Z,10.80
2018-09-24T21:14:23.390Z,10.70
2018-09-24T21:16:57.011Z,10.70
2018-09-24T21:19:30.615Z,10.60
2018-09-24T21:22:04.067Z,10.50
2018-09-24T21:24:37.600Z,10.40
2018-09-24T21:27:11.280Z,10.40
2018-09-24T21:29:44.874Z,10.40
2018-09-24T21:32:18.562Z,10.30
2018-09-24T21:34:52.210Z,10.30
2018-09-24T21:37:25.571Z,10.30
2018-09-24T21:39:59.027Z,10.30
2018-09-24T21:42:32.650Z,10.20
2018-09-24T21:45:06.277Z,10.20
2018-09-24T21:47:39.710Z,10.10
2018-09-24T21:50:13.382Z,10.10
2018-09-24T21:52:46.746Z,10.10
2018-09-24T21:55:20.473Z,10.10
2018-09-24T21:57:53.927Z,10.10
2018-09-24T22:00:27.405Z,10.10
2018-09-24T22:03:00.803Z,10.10
2018-09-24T22:05:34.467Z,10.10
2018-09-24T22:08:07.976Z,10.10
2018-09-24T22:10:41.322Z,10.10
2018-09-24T22:13:14.950Z,10.10
2018-09-24T22:15:48.577Z,10.10
2018-09-24T22:18:21.940Z,10.10
2018-09-24T22:20:55.323Z,10.10
2018-09-24T22:23:28.674Z,10.10
2018-09-24T22:26:02.374Z,10.10
2018-09-24T22:28:35.802Z,10.10
2018-09-24T22:31:09.559Z,10.10
2018-09-24T22:33:42.923Z,10.10
2018-09-24T22:36:16.244Z,10.00
2018-09-24T22:38:49.870Z,10.00
2018-09-24T22:41:23.279Z,10.00
2018-09-24T22:43:56.950Z,9.90
2018-09-24T22:46:30.569Z,9.90
2018-09-24T22:49:04.171Z,9.90
2018-09-24T22:51:37.862Z,9.90
2018-09-24T22:54:11.476Z,9.80
2018-09-24T22:56:44.799Z,9.70
2018-09-24T22:59:18.125Z,9.70
2018-09-24T23:01:51.854Z,9.70
2018-09-24T23:04:25.292Z,9.70
2018-09-24T23:06:58.685Z,9.60
2018-09-24T23:09:32.273Z,9.60
2018-09-24T23:12:05.730Z,9.60
2018-09-24T23:14:39.354Z,9.50
2018-09-24T23:17:12.830Z,9.50
2018-09-24T23:19:46.517Z,9.50
2018-09-24T23:22:20.176Z,9.40
2018-09-24T23:24:53.702Z,9.50
2018-09-24T23:27:27.160Z,9.50
2018-09-24T23:30:00.592Z,9.40
2018-09-24T23:32:34.234Z,9.40
2018-09-24T23:35:07.938Z,9.40
2018-09-24T23:37:41.451Z,9.40
2018-09-24T23:40:14.825Z,9.40
2018-09-24T23:42:48.407Z,9.40
2018-09-24T23:45:21.789Z,9.30
2018-09-24T23:47:55.515Z,9.30
2018-09-24T23:50:28.998Z,9.30
2018-09-24T23:53:02.499Z,9.20
2018-09-24T23:55:35.926Z,9.10
2018-09-24T23:58:09.650Z,9.00
